sensor_id;sensor_type;location;lat;lon;timestamp;temperature;humidity
55870;DHT22;41790;50.940;4.560;2023-02-28T00:01:24;1.30;73.00
55870;DHT22;41790;50.940;4.560;2023-02-28T00:03:52;1.30;73.50
55870;DHT22;41790;50.940;4.560;2023-02-28T00:06:18;1.20;74.30
55870;DHT22;41790;50.940;4.560;2023-02-28T00:08:53;1.30;74.30
55870;DHT22;41790;50.940;4.560;2023-02-28T00:11:20;1.30;74.50
55870;DHT22;41790;50.940;4.560;2023-02-28T00:13:47;1.30;73.80
55870;DHT22;41790;50.940;4.560;2023-02-28T00:16:19;1.20;74.40
55870;DHT22;41790;50.940;4.560;2023-02-28T00:18:47;1.10;74.90
55870;DHT22;41790;50.940;4.560;2023-02-28T00:21:17;1.00;75.10
55870;DHT22;41790;50.940;4.560;2023-02-28T00:23:43;1.00;75.30
55870;DHT22;41790;50.940;4.560;2023-02-28T00:26:09;1.00;75.40
55870;DHT22;41790;50.940;4.560;2023-02-28T00:28:35;0.90;75.60
55870;DHT22;41790;50.940;4.560;2023-02-28T00:31:04;1.00;75.30
55870;DHT22;41790;50.940;4.560;2023-02-28T00:33:30;1.00;75.20
55870;DHT22;41790;50.940;4.560;2023-02-28T00:36:05;1.10;74.80
55870;DHT22;41790;50.940;4.560;2023-02-28T00:38:31;1.40;74.10
55870;DHT22;41790;50.940;4.560;2023-02-28T00:40:57;1.30;74.00
55870;DHT22;41790;50.940;4.560;2023-02-28T00:43:24;1.20;74.40
55870;DHT22;41790;50.940;4.560;2023-02-28T00:45:49;1.30;74.40
55870;DHT22;41790;50.940;4.560;2023-02-28T00:48:15;1.40;73.60
55870;DHT22;41790;50.940;4.560;2023-02-28T00:50:41;1.50;73.40
55870;DHT22;41790;50.940;4.560;2023-02-28T00:53:07;1.60;73.20
55870;DHT22;41790;50.940;4.560;2023-02-28T00:55:33;1.60;72.80
55870;DHT22;41790;50.940;4.560;2023-02-28T00:57:59;1.70;72.30
55870;DHT22;41790;50.940;4.560;2023-02-28T01:00:25;1.80;72.00
55870;DHT22;41790;50.940;4.560;2023-02-28T01:02:51;1.70;71.80
55870;DHT22;41790;50.940;4.560;2023-02-28T01:05:17;1.80;71.50
55870;DHT22;41790;50.940;4.560;2023-02-28T01:07:43;1.80;71.20
55870;DHT22;41790;50.940;4.560;2023-02-28T01:10:09;1.80;70.70
55870;DHT22;41790;50.940;4.560;2023-02-28T01:12:38;1.70;71.10
55870;DHT22;41790;50.940;4.560;2023-02-28T01:15:05;1.60;72.00
55870;DHT22;41790;50.940;4.560;2023-02-28T01:17:33;1.70;71.60
55870;DHT22;41790;50.940;4.560;2023-02-28T01:19:59;1.70;71.60
55870;DHT22;41790;50.940;4.560;2023-02-28T01:22:25;1.90;71.10
55870;DHT22;41790;50.940;4.560;2023-02-28T01:24:51;1.70;70.80
55870;DHT22;41790;50.940;4.560;2023-02-28T01:27:20;1.70;71.30
55870;DHT22;41790;50.940;4.560;2023-02-28T01:29:46;1.60;71.30
55870;DHT22;41790;50.940;4.560;2023-02-28T01:32:12;1.40;72.00
55870;DHT22;41790;50.940;4.560;2023-02-28T01:34:38;1.30;73.00
55870;DHT22;41790;50.940;4.560;2023-02-28T01:37:04;1.20;73.50
55870;DHT22;41790;50.940;4.560;2023-02-28T01:39:30;1.10;73.70
55870;DHT22;41790;50.940;4.560;2023-02-28T01:41:56;0.90;74.00
55870;DHT22;41790;50.940;4.560;2023-02-28T01:45:03;0.80;75.10
55870;DHT22;41790;50.940;4.560;2023-02-28T01:47:39;0.80;75.30
55870;DHT22;41790;50.940;4.560;2023-02-28T01:50:12;0.80;75.40
55870;DHT22;41790;50.940;4.560;2023-02-28T01:52:50;0.80;75.00
55870;DHT22;41790;50.940;4.560;2023-02-28T01:55:22;0.80;75.30
55870;DHT22;41790;50.940;4.560;2023-02-28T01:57:58;0.70;75.50
55870;DHT22;41790;50.940;4.560;2023-02-28T02:00:26;0.80;75.70
55870;DHT22;41790;50.940;4.560;2023-02-28T02:02:58;0.90;75.30
55870;DHT22;41790;50.940;4.560;2023-02-28T02:05:31;0.80;75.30
55870;DHT22;41790;50.940;4.560;2023-02-28T02:08:05;0.90;75.20
55870;DHT22;41790;50.940;4.560;2023-02-28T02:10:53;1.00;75.00
55870;DHT22;41790;50.940;4.560;2023-02-28T02:19:33;1.40;73.00
55870;DHT22;41790;50.940;4.560;2023-02-28T02:24:54;1.30;73.00
55870;DHT22;41790;50.940;4.560;2023-02-28T02:30:32;1.20;73.60
55870;DHT22;41790;50.940;4.560;2023-02-28T02:36:03;1.40;73.10
55870;DHT22;41790;50.940;4.560;2023-02-28T02:39:00;1.40;72.20
55870;DHT22;41790;50.940;4.560;2023-02-28T02:41:50;1.60;71.20
55870;DHT22;41790;50.940;4.560;2023-02-28T02:44:27;1.80;70.00
55870;DHT22;41790;50.940;4.560;2023-02-28T02:47:08;2.00;69.50
55870;DHT22;41790;50.940;4.560;2023-02-28T02:49:37;1.90;69.50
55870;DHT22;41790;50.940;4.560;2023-02-28T02:52:07;1.90;69.80
55870;DHT22;41790;50.940;4.560;2023-02-28T02:54:36;1.90;69.50
55870;DHT22;41790;50.940;4.560;2023-02-28T02:57:10;2.10;69.00
55870;DHT22;41790;50.940;4.560;2023-02-28T02:59:39;2.10;69.00
55870;DHT22;41790;50.940;4.560;2023-02-28T03:02:15;1.90;69.30
55870;DHT22;41790;50.940;4.560;2023-02-28T03:04:51;1.90;69.60
55870;DHT22;41790;50.940;4.560;2023-02-28T03:07:20;1.90;68.90
55870;DHT22;41790;50.940;4.560;2023-02-28T03:09:53;2.00;68.30
55870;DHT22;41790;50.940;4.560;2023-02-28T03:12:20;1.90;68.60
55870;DHT22;41790;50.940;4.560;2023-02-28T03:15:01;1.80;69.40
55870;DHT22;41790;50.940;4.560;2023-02-28T03:20:27;1.70;70.00
55870;DHT22;41790;50.940;4.560;2023-02-28T03:23:23;1.60;70.40
55870;DHT22;41790;50.940;4.560;2023-02-28T03:28:41;1.70;68.30
55870;DHT22;41790;50.940;4.560;2023-02-28T03:31:30;1.80;68.00
55870;DHT22;41790;50.940;4.560;2023-02-28T03:34:51;1.80;67.70
55870;DHT22;41790;50.940;4.560;2023-02-28T03:37:04;1.70;68.60
55870;DHT22;41790;50.940;4.560;2023-02-28T03:39:43;1.60;69.10
55870;DHT22;41790;50.940;4.560;2023-02-28T03:42:15;1.60;69.50
55870;DHT22;41790;50.940;4.560;2023-02-28T03:44:45;1.50;68.90
55870;DHT22;41790;50.940;4.560;2023-02-28T03:50:12;1.60;68.30
55870;DHT22;41790;50.940;4.560;2023-02-28T03:52:52;1.70;68.00
55870;DHT22;41790;50.940;4.560;2023-02-28T03:55:35;1.70;67.30
55870;DHT22;41790;50.940;4.560;2023-02-28T04:00:39;1.60;68.70
55870;DHT22;41790;50.940;4.560;2023-02-28T04:03:06;1.50;68.90
55870;DHT22;41790;50.940;4.560;2023-02-28T04:05:54;1.50;69.10
55870;DHT22;41790;50.940;4.560;2023-02-28T04:08:23;1.50;69.50
55870;DHT22;41790;50.940;4.560;2023-02-28T04:11:03;1.50;69.90
55870;DHT22;41790;50.940;4.560;2023-02-28T04:13:33;1.50;68.80
55870;DHT22;41790;50.940;4.560;2023-02-28T04:15:59;1.60;69.00
55870;DHT22;41790;50.940;4.560;2023-02-28T04:18:27;1.70;69.10
55870;DHT22;41790;50.940;4.560;2023-02-28T04:20:59;1.80;69.70
55870;DHT22;41790;50.940;4.560;2023-02-28T04:23:27;1.80;70.20
55870;DHT22;41790;50.940;4.560;2023-02-28T04:25:55;1.80;70.20
55870;DHT22;41790;50.940;4.560;2023-02-28T04:28:21;1.70;70.50
55870;DHT22;41790;50.940;4.560;2023-02-28T04:31:01;1.70;71.00
55870;DHT22;41790;50.940;4.560;2023-02-28T04:33:28;1.60;70.70
55870;DHT22;41790;50.940;4.560;2023-02-28T04:38:28;1.90;70.70
55870;DHT22;41790;50.940;4.560;2023-02-28T04:40:57;1.80;70.20
55870;DHT22;41790;50.940;4.560;2023-02-28T04:43:23;1.70;70.80
55870;DHT22;41790;50.940;4.560;2023-02-28T04:45:49;1.70;70.90
55870;DHT22;41790;50.940;4.560;2023-02-28T04:48:15;1.50;71.90
55870;DHT22;41790;50.940;4.560;2023-02-28T04:50:40;1.40;72.50
55870;DHT22;41790;50.940;4.560;2023-02-28T04:53:09;1.20;74.00
55870;DHT22;41790;50.940;4.560;2023-02-28T04:55:35;1.10;73.70
55870;DHT22;41790;50.940;4.560;2023-02-28T04:58:01;1.10;74.00
55870;DHT22;41790;50.940;4.560;2023-02-28T05:00:36;1.10;74.40
55870;DHT22;41790;50.940;4.560;2023-02-28T05:03:02;1.20;74.10
55870;DHT22;41790;50.940;4.560;2023-02-28T05:05:28;1.30;73.80
55870;DHT22;41790;50.940;4.560;2023-02-28T05:07:56;1.40;73.30
55870;DHT22;41790;50.940;4.560;2023-02-28T05:10:23;1.70;72.60
55870;DHT22;41790;50.940;4.560;2023-02-28T05:12:51;1.60;72.80
55870;DHT22;41790;50.940;4.560;2023-02-28T05:15:17;1.60;73.00
55870;DHT22;41790;50.940;4.560;2023-02-28T05:17:43;1.60;73.00
55870;DHT22;41790;50.940;4.560;2023-02-28T05:20:12;1.70;72.70
55870;DHT22;41790;50.940;4.560;2023-02-28T05:22:44;1.50;72.60
55870;DHT22;41790;50.940;4.560;2023-02-28T05:25:17;1.40;73.90
55870;DHT22;41790;50.940;4.560;2023-02-28T05:27:43;1.40;74.00
55870;DHT22;41790;50.940;4.560;2023-02-28T05:30:12;1.40;73.60
55870;DHT22;41790;50.940;4.560;2023-02-28T05:32:51;1.40;74.30
55870;DHT22;41790;50.940;4.560;2023-02-28T05:35:18;1.40;74.10
55870;DHT22;41790;50.940;4.560;2023-02-28T05:37:43;1.40;74.20
55870;DHT22;41790;50.940;4.560;2023-02-28T05:40:10;1.30;74.50
55870;DHT22;41790;50.940;4.560;2023-02-28T05:42:36;1.20;74.90
55870;DHT22;41790;50.940;4.560;2023-02-28T05:45:04;1.20;75.40
55870;DHT22;41790;50.940;4.560;2023-02-28T05:47:30;1.20;75.50
55870;DHT22;41790;50.940;4.560;2023-02-28T05:49:58;1.20;75.20
55870;DHT22;41790;50.940;4.560;2023-02-28T05:52:24;1.20;75.30
55870;DHT22;41790;50.940;4.560;2023-02-28T05:54:50;1.20;75.70
55870;DHT22;41790;50.940;4.560;2023-02-28T05:57:16;1.30;75.30
55870;DHT22;41790;50.940;4.560;2023-02-28T05:59:44;1.30;75.30
55870;DHT22;41790;50.940;4.560;2023-02-28T06:02:15;1.50;75.10
55870;DHT22;41790;50.940;4.560;2023-02-28T06:04:42;1.40;74.80
55870;DHT22;41790;50.940;4.560;2023-02-28T06:07:08;1.30;75.70
55870;DHT22;41790;50.940;4.560;2023-02-28T06:09:43;1.30;75.90
55870;DHT22;41790;50.940;4.560;2023-02-28T06:12:10;1.20;76.10
55870;DHT22;41790;50.940;4.560;2023-02-28T06:14:36;1.20;75.90
55870;DHT22;41790;50.940;4.560;2023-02-28T06:17:04;1.10;76.60
55870;DHT22;41790;50.940;4.560;2023-02-28T06:19:30;1.20;76.70
55870;DHT22;41790;50.940;4.560;2023-02-28T06:21:56;1.10;77.40
55870;DHT22;41790;50.940;4.560;2023-02-28T06:24:26;1.20;76.80
55870;DHT22;41790;50.940;4.560;2023-02-28T06:26:55;1.10;77.00
55870;DHT22;41790;50.940;4.560;2023-02-28T06:29:22;1.00;77.60
55870;DHT22;41790;50.940;4.560;2023-02-28T06:31:48;1.00;78.50
55870;DHT22;41790;50.940;4.560;2023-02-28T06:34:14;0.90;78.70
55870;DHT22;41790;50.940;4.560;2023-02-28T06:36:50;0.90;78.90
55870;DHT22;41790;50.940;4.560;2023-02-28T06:39:17;1.00;78.40
55870;DHT22;41790;50.940;4.560;2023-02-28T06:41:48;1.10;78.60
55870;DHT22;41790;50.940;4.560;2023-02-28T06:44:17;1.20;78.30
55870;DHT22;41790;50.940;4.560;2023-02-28T06:46:51;1.30;77.50
55870;DHT22;41790;50.940;4.560;2023-02-28T06:49:17;1.40;77.40
55870;DHT22;41790;50.940;4.560;2023-02-28T06:51:44;1.60;76.90
55870;DHT22;41790;50.940;4.560;2023-02-28T06:54:13;1.60;76.00
55870;DHT22;41790;50.940;4.560;2023-02-28T06:56:39;1.60;76.60
55870;DHT22;41790;50.940;4.560;2023-02-28T06:59:05;1.60;76.30
55870;DHT22;41790;50.940;4.560;2023-02-28T07:01:31;1.50;76.90
55870;DHT22;41790;50.940;4.560;2023-02-28T07:03:58;1.60;77.40
55870;DHT22;41790;50.940;4.560;2023-02-28T07:06:26;1.60;77.10
55870;DHT22;41790;50.940;4.560;2023-02-28T07:08:52;1.60;76.80
55870;DHT22;41790;50.940;4.560;2023-02-28T07:11:19;1.50;76.80
55870;DHT22;41790;50.940;4.560;2023-02-28T07:13:46;1.50;76.90
55870;DHT22;41790;50.940;4.560;2023-02-28T07:16:13;1.50;76.70
55870;DHT22;41790;50.940;4.560;2023-02-28T07:18:39;1.50;77.10
55870;DHT22;41790;50.940;4.560;2023-02-28T07:21:08;1.40;77.60
55870;DHT22;41790;50.940;4.560;2023-02-28T07:23:35;1.30;77.70
55870;DHT22;41790;50.940;4.560;2023-02-28T07:26:01;1.30;78.50
55870;DHT22;41790;50.940;4.560;2023-02-28T07:28:27;1.40;78.10
55870;DHT22;41790;50.940;4.560;2023-02-28T07:30:56;1.40;77.90
55870;DHT22;41790;50.940;4.560;2023-02-28T07:33:22;1.50;77.90
55870;DHT22;41790;50.940;4.560;2023-02-28T07:35:49;1.50;77.50
55870;DHT22;41790;50.940;4.560;2023-02-28T07:38:15;1.70;76.30
55870;DHT22;41790;50.940;4.560;2023-02-28T07:40:41;1.60;75.60
55870;DHT22;41790;50.940;4.560;2023-02-28T07:43:07;1.60;74.90
55870;DHT22;41790;50.940;4.560;2023-02-28T07:45:33;1.50;75.10
55870;DHT22;41790;50.940;4.560;2023-02-28T07:48:03;1.50;74.40
55870;DHT22;41790;50.940;4.560;2023-02-28T07:50:31;1.50;74.60
55870;DHT22;41790;50.940;4.560;2023-02-28T07:52:58;1.50;74.40
55870;DHT22;41790;50.940;4.560;2023-02-28T07:55:24;1.50;74.60
55870;DHT22;41790;50.940;4.560;2023-02-28T07:57:50;1.60;75.00
55870;DHT22;41790;50.940;4.560;2023-02-28T08:00:16;1.70;74.20
55870;DHT22;41790;50.940;4.560;2023-02-28T08:02:45;1.70;73.90
55870;DHT22;41790;50.940;4.560;2023-02-28T08:05:11;1.70;73.90
55870;DHT22;41790;50.940;4.560;2023-02-28T08:07:37;1.70;73.60
55870;DHT22;41790;50.940;4.560;2023-02-28T08:10:04;1.70;72.80
55870;DHT22;41790;50.940;4.560;2023-02-28T08:12:31;1.80;72.90
55870;DHT22;41790;50.940;4.560;2023-02-28T08:14:57;1.90;72.30
55870;DHT22;41790;50.940;4.560;2023-02-28T08:17:23;2.00;72.00
55870;DHT22;41790;50.940;4.560;2023-02-28T08:19:49;2.10;71.00
55870;DHT22;41790;50.940;4.560;2023-02-28T08:22:15;2.20;71.20
55870;DHT22;41790;50.940;4.560;2023-02-28T08:24:44;2.20;69.50
55870;DHT22;41790;50.940;4.560;2023-02-28T08:27:10;2.20;68.60
55870;DHT22;41790;50.940;4.560;2023-02-28T08:29:37;2.20;67.50
55870;DHT22;41790;50.940;4.560;2023-02-28T08:32:07;2.30;67.10
55870;DHT22;41790;50.940;4.560;2023-02-28T08:34:39;2.60;67.00
55870;DHT22;41790;50.940;4.560;2023-02-28T08:37:05;2.80;66.40
55870;DHT22;41790;50.940;4.560;2023-02-28T08:39:35;2.90;64.50
55870;DHT22;41790;50.940;4.560;2023-02-28T08:42:08;2.90;65.50
55870;DHT22;41790;50.940;4.560;2023-02-28T08:44:35;2.90;65.50
55870;DHT22;41790;50.940;4.560;2023-02-28T08:47:01;2.90;65.10
55870;DHT22;41790;50.940;4.560;2023-02-28T08:49:27;2.80;64.20
55870;DHT22;41790;50.940;4.560;2023-02-28T08:51:54;2.80;63.20
55870;DHT22;41790;50.940;4.560;2023-02-28T08:54:23;2.80;62.80
55870;DHT22;41790;50.940;4.560;2023-02-28T08:56:49;2.70;62.70
55870;DHT22;41790;50.940;4.560;2023-02-28T08:59:15;2.80;63.00
55870;DHT22;41790;50.940;4.560;2023-02-28T09:01:42;2.90;63.00
55870;DHT22;41790;50.940;4.560;2023-02-28T09:04:09;3.00;61.70
55870;DHT22;41790;50.940;4.560;2023-02-28T09:06:37;3.00;60.00
55870;DHT22;41790;50.940;4.560;2023-02-28T09:09:03;3.10;60.50
55870;DHT22;41790;50.940;4.560;2023-02-28T09:11:32;3.30;60.50
55870;DHT22;41790;50.940;4.560;2023-02-28T09:13:58;3.20;59.20
55870;DHT22;41790;50.940;4.560;2023-02-28T09:16:34;3.30;60.50
55870;DHT22;41790;50.940;4.560;2023-02-28T09:19:00;3.50;61.30
55870;DHT22;41790;50.940;4.560;2023-02-28T09:21:38;3.50;58.30
55870;DHT22;41790;50.940;4.560;2023-02-28T09:24:04;3.40;58.20
55870;DHT22;41790;50.940;4.560;2023-02-28T09:26:33;3.60;59.60
55870;DHT22;41790;50.940;4.560;2023-02-28T09:28:59;3.60;56.60
55870;DHT22;41790;50.940;4.560;2023-02-28T09:31:33;3.70;57.10
55870;DHT22;41790;50.940;4.560;2023-02-28T09:33:59;3.80;57.40
55870;DHT22;41790;50.940;4.560;2023-02-28T09:36:26;3.80;56.10
55870;DHT22;41790;50.940;4.560;2023-02-28T09:38:53;3.60;55.60
55870;DHT22;41790;50.940;4.560;2023-02-28T09:41:27;3.50;55.90
55870;DHT22;41790;50.940;4.560;2023-02-28T09:44:02;3.30;55.50
55870;DHT22;41790;50.940;4.560;2023-02-28T09:46:33;3.30;56.20
55870;DHT22;41790;50.940;4.560;2023-02-28T09:49:37;3.30;55.90
55870;DHT22;41790;50.940;4.560;2023-02-28T09:52:23;3.40;56.50
55870;DHT22;41790;50.940;4.560;2023-02-28T09:54:55;3.60;56.70
55870;DHT22;41790;50.940;4.560;2023-02-28T09:57:35;3.70;55.90
55870;DHT22;41790;50.940;4.560;2023-02-28T10:09:03;3.80;51.90
55870;DHT22;41790;50.940;4.560;2023-02-28T10:11:36;3.80;50.70
55870;DHT22;41790;50.940;4.560;2023-02-28T10:14:11;3.90;49.70
55870;DHT22;41790;50.940;4.560;2023-02-28T10:17:10;3.80;47.90
55870;DHT22;41790;50.940;4.560;2023-02-28T10:22:36;3.80;48.40
55870;DHT22;41790;50.940;4.560;2023-02-28T10:25:23;3.90;49.20
55870;DHT22;41790;50.940;4.560;2023-02-28T10:27:49;4.00;48.80
55870;DHT22;41790;50.940;4.560;2023-02-28T10:30:15;4.10;48.90
55870;DHT22;41790;50.940;4.560;2023-02-28T10:32:52;3.90;47.30
55870;DHT22;41790;50.940;4.560;2023-02-28T10:35:24;3.70;48.50
55870;DHT22;41790;50.940;4.560;2023-02-28T10:38:14;3.80;49.50
55870;DHT22;41790;50.940;4.560;2023-02-28T10:40:41;3.80;49.20
55870;DHT22;41790;50.940;4.560;2023-02-28T10:46:09;3.80;48.10
55870;DHT22;41790;50.940;4.560;2023-02-28T10:52:37;3.90;48.70
55870;DHT22;41790;50.940;4.560;2023-02-28T10:55:20;3.90;49.30
55870;DHT22;41790;50.940;4.560;2023-02-28T10:57:48;3.90;50.20
55870;DHT22;41790;50.940;4.560;2023-02-28T11:00:25;4.00;49.60
55870;DHT22;41790;50.940;4.560;2023-02-28T11:02:59;4.10;48.80
55870;DHT22;41790;50.940;4.560;2023-02-28T11:05:34;4.30;48.40
55870;DHT22;41790;50.940;4.560;2023-02-28T11:08:10;4.20;47.10
55870;DHT22;41790;50.940;4.560;2023-02-28T11:10:38;4.20;46.90
55870;DHT22;41790;50.940;4.560;2023-02-28T11:13:05;4.20;47.80
55870;DHT22;41790;50.940;4.560;2023-02-28T11:15:35;4.30;48.10
55870;DHT22;41790;50.940;4.560;2023-02-28T11:20:38;4.00;45.90
55870;DHT22;41790;50.940;4.560;2023-02-28T11:23:13;4.00;47.70
55870;DHT22;41790;50.940;4.560;2023-02-28T11:25:40;4.10;48.40
55870;DHT22;41790;50.940;4.560;2023-02-28T11:28:33;4.20;48.30
55870;DHT22;41790;50.940;4.560;2023-02-28T11:31:17;4.40;47.10
55870;DHT22;41790;50.940;4.560;2023-02-28T11:33:55;4.40;47.20
55870;DHT22;41790;50.940;4.560;2023-02-28T11:36:28;4.30;47.40
55870;DHT22;41790;50.940;4.560;2023-02-28T11:38:58;4.40;48.30
55870;DHT22;41790;50.940;4.560;2023-02-28T11:47:37;4.40;46.90
55870;DHT22;41790;50.940;4.560;2023-02-28T11:50:38;4.30;46.40
55870;DHT22;41790;50.940;4.560;2023-02-28T11:56:48;4.40;46.50
55870;DHT22;41790;50.940;4.560;2023-02-28T11:59:42;4.50;46.20
55870;DHT22;41790;50.940;4.560;2023-02-28T12:02:26;4.50;46.40
55870;DHT22;41790;50.940;4.560;2023-02-28T12:10:22;4.70;46.20
55870;DHT22;41790;50.940;4.560;2023-02-28T12:13:13;4.80;45.70
55870;DHT22;41790;50.940;4.560;2023-02-28T12:16:00;4.80;45.80
55870;DHT22;41790;50.940;4.560;2023-02-28T12:26:45;4.70;43.70
55870;DHT22;41790;50.940;4.560;2023-02-28T12:29:34;4.70;43.10
55870;DHT22;41790;50.940;4.560;2023-02-28T12:32:21;4.70;42.80
55870;DHT22;41790;50.940;4.560;2023-02-28T12:35:02;4.70;43.40
55870;DHT22;41790;50.940;4.560;2023-02-28T12:37:47;4.70;43.60
55870;DHT22;41790;50.940;4.560;2023-02-28T12:40:21;4.80;44.40
55870;DHT22;41790;50.940;4.560;2023-02-28T12:45:21;4.80;43.70
55870;DHT22;41790;50.940;4.560;2023-02-28T12:47:55;4.90;44.10
55870;DHT22;41790;50.940;4.560;2023-02-28T12:50:30;5.00;43.90
55870;DHT22;41790;50.940;4.560;2023-02-28T12:53:18;5.00;43.60
55870;DHT22;41790;50.940;4.560;2023-02-28T12:56:42;5.00;43.30
55870;DHT22;41790;50.940;4.560;2023-02-28T13:00:01;5.10;42.10
55870;DHT22;41790;50.940;4.560;2023-02-28T13:10:10;4.90;42.70
55870;DHT22;41790;50.940;4.560;2023-02-28T13:12:36;5.10;43.40
55870;DHT22;41790;50.940;4.560;2023-02-28T13:15:25;5.10;42.80
55870;DHT22;41790;50.940;4.560;2023-02-28T13:18:02;5.20;43.40
55870;DHT22;41790;50.940;4.560;2023-02-28T13:20:37;5.20;43.10
55870;DHT22;41790;50.940;4.560;2023-02-28T13:26:17;5.20;43.20
55870;DHT22;41790;50.940;4.560;2023-02-28T13:29:01;5.30;43.30
55870;DHT22;41790;50.940;4.560;2023-02-28T13:31:28;5.20;42.60
55870;DHT22;41790;50.940;4.560;2023-02-28T13:34:15;5.10;42.90
55870;DHT22;41790;50.940;4.560;2023-02-28T13:39:57;5.20;42.40
55870;DHT22;41790;50.940;4.560;2023-02-28T14:01:44;5.10;42.70
55870;DHT22;41790;50.940;4.560;2023-02-28T14:06:57;5.40;43.60
55870;DHT22;41790;50.940;4.560;2023-02-28T14:09:32;5.40;43.90
55870;DHT22;41790;50.940;4.560;2023-02-28T14:18:28;5.30;43.20
55870;DHT22;41790;50.940;4.560;2023-02-28T14:21:16;5.30;44.60
55870;DHT22;41790;50.940;4.560;2023-02-28T14:38:25;5.50;44.50
55870;DHT22;41790;50.940;4.560;2023-02-28T14:40:55;5.40;43.70
55870;DHT22;41790;50.940;4.560;2023-02-28T14:43:24;5.40;44.20
55870;DHT22;41790;50.940;4.560;2023-02-28T14:45:54;5.50;44.70
55870;DHT22;41790;50.940;4.560;2023-02-28T14:48:21;5.50;45.00
55870;DHT22;41790;50.940;4.560;2023-02-28T14:50:53;5.50;45.20
55870;DHT22;41790;50.940;4.560;2023-02-28T14:53:21;5.50;44.30
55870;DHT22;41790;50.940;4.560;2023-02-28T14:55:49;5.60;44.60
55870;DHT22;41790;50.940;4.560;2023-02-28T15:00:54;5.50;44.40
55870;DHT22;41790;50.940;4.560;2023-02-28T15:03:39;5.60;45.30
55870;DHT22;41790;50.940;4.560;2023-02-28T15:06:15;5.60;45.40
55870;DHT22;41790;50.940;4.560;2023-02-28T15:08:43;5.60;44.60
55870;DHT22;41790;50.940;4.560;2023-02-28T15:11:15;5.50;43.90
55870;DHT22;41790;50.940;4.560;2023-02-28T15:13:47;5.50;44.30
55870;DHT22;41790;50.940;4.560;2023-02-28T15:16:14;5.50;44.60
55870;DHT22;41790;50.940;4.560;2023-02-28T15:18:59;5.50;45.00
55870;DHT22;41790;50.940;4.560;2023-02-28T15:21:41;5.50;44.20
55870;DHT22;41790;50.940;4.560;2023-02-28T15:24:15;5.50;45.60
55870;DHT22;41790;50.940;4.560;2023-02-28T15:26:46;5.50;44.50
55870;DHT22;41790;50.940;4.560;2023-02-28T15:29:28;5.40;44.30
55870;DHT22;41790;50.940;4.560;2023-02-28T15:32:02;5.30;45.40
55870;DHT22;41790;50.940;4.560;2023-02-28T15:38:21;5.20;45.20
55870;DHT22;41790;50.940;4.560;2023-02-28T15:40:58;5.30;45.70
55870;DHT22;41790;50.940;4.560;2023-02-28T15:43:29;5.30;45.80
55870;DHT22;41790;50.940;4.560;2023-02-28T15:46:13;5.30;46.00
55870;DHT22;41790;50.940;4.560;2023-02-28T15:48:57;5.20;44.90
55870;DHT22;41790;50.940;4.560;2023-02-28T15:51:28;5.20;45.10
55870;DHT22;41790;50.940;4.560;2023-02-28T15:54:04;5.20;45.70
55870;DHT22;41790;50.940;4.560;2023-02-28T15:56:47;5.20;45.80
55870;DHT22;41790;50.940;4.560;2023-02-28T15:59:28;5.20;45.40
55870;DHT22;41790;50.940;4.560;2023-02-28T16:02:15;5.30;45.90
55870;DHT22;41790;50.940;4.560;2023-02-28T16:05:12;5.20;46.20
55870;DHT22;41790;50.940;4.560;2023-02-28T16:07:41;5.10;46.80
55870;DHT22;41790;50.940;4.560;2023-02-28T16:10:22;5.10;46.40
55870;DHT22;41790;50.940;4.560;2023-02-28T16:12:55;5.10;46.30
55870;DHT22;41790;50.940;4.560;2023-02-28T16:15:30;5.10;46.10
55870;DHT22;41790;50.940;4.560;2023-02-28T16:17:57;5.10;46.50
55870;DHT22;41790;50.940;4.560;2023-02-28T16:20:28;5.10;46.20
55870;DHT22;41790;50.940;4.560;2023-02-28T16:22:55;5.10;46.80
55870;DHT22;41790;50.940;4.560;2023-02-28T16:25:40;5.10;47.30
55870;DHT22;41790;50.940;4.560;2023-02-28T16:28:31;5.00;46.30
55870;DHT22;41790;50.940;4.560;2023-02-28T16:31:03;5.00;47.20
55870;DHT22;41790;50.940;4.560;2023-02-28T16:33:30;4.90;46.50
55870;DHT22;41790;50.940;4.560;2023-02-28T16:36:00;4.90;46.50
55870;DHT22;41790;50.940;4.560;2023-02-28T16:38:26;4.90;46.60
55870;DHT22;41790;50.940;4.560;2023-02-28T16:40:59;4.90;46.70
55870;DHT22;41790;50.940;4.560;2023-02-28T16:43:26;4.90;46.60
55870;DHT22;41790;50.940;4.560;2023-02-28T16:45:56;4.90;47.20
55870;DHT22;41790;50.940;4.560;2023-02-28T16:48:32;4.90;47.30
55870;DHT22;41790;50.940;4.560;2023-02-28T16:51:01;4.80;47.50
55870;DHT22;41790;50.940;4.560;2023-02-28T16:53:30;4.80;47.40
55870;DHT22;41790;50.940;4.560;2023-02-28T16:56:03;4.80;47.40
55870;DHT22;41790;50.940;4.560;2023-02-28T16:58:40;4.80;47.50
55870;DHT22;41790;50.940;4.560;2023-02-28T17:01:06;4.80;47.50
55870;DHT22;41790;50.940;4.560;2023-02-28T17:03:33;4.80;47.60
55870;DHT22;41790;50.940;4.560;2023-02-28T17:05:59;4.90;48.00
55870;DHT22;41790;50.940;4.560;2023-02-28T17:08:25;4.90;47.40
55870;DHT22;41790;50.940;4.560;2023-02-28T17:11:00;4.90;47.80
55870;DHT22;41790;50.940;4.560;2023-02-28T17:13:27;4.80;47.80
55870;DHT22;41790;50.940;4.560;2023-02-28T17:15:54;4.80;48.10
55870;DHT22;41790;50.940;4.560;2023-02-28T17:18:25;4.70;48.30
55870;DHT22;41790;50.940;4.560;2023-02-28T17:20:52;4.70;49.00
55870;DHT22;41790;50.940;4.560;2023-02-28T17:23:18;4.80;49.20
55870;DHT22;41790;50.940;4.560;2023-02-28T17:25:44;4.80;48.70
55870;DHT22;41790;50.940;4.560;2023-02-28T17:28:19;4.70;48.30
55870;DHT22;41790;50.940;4.560;2023-02-28T17:30:46;4.70;49.10
55870;DHT22;41790;50.940;4.560;2023-02-28T17:33:15;4.60;48.80
55870;DHT22;41790;50.940;4.560;2023-02-28T17:35:41;4.60;49.20
55870;DHT22;41790;50.940;4.560;2023-02-28T17:38:18;4.50;49.50
55870;DHT22;41790;50.940;4.560;2023-02-28T17:40:45;4.40;49.60
55870;DHT22;41790;50.940;4.560;2023-02-28T17:43:11;4.50;49.80
55870;DHT22;41790;50.940;4.560;2023-02-28T17:45:37;4.40;49.90
55870;DHT22;41790;50.940;4.560;2023-02-28T17:48:03;4.40;50.20
55870;DHT22;41790;50.940;4.560;2023-02-28T17:50:29;4.30;50.10
55870;DHT22;41790;50.940;4.560;2023-02-28T17:52:55;4.30;50.30
55870;DHT22;41790;50.940;4.560;2023-02-28T17:55:21;4.20;50.50
55870;DHT22;41790;50.940;4.560;2023-02-28T17:57:48;4.20;50.50
55870;DHT22;41790;50.940;4.560;2023-02-28T18:00:18;4.10;50.60
55870;DHT22;41790;50.940;4.560;2023-02-28T18:02:44;4.10;50.70
55870;DHT22;41790;50.940;4.560;2023-02-28T18:05:11;4.20;50.50
55870;DHT22;41790;50.940;4.560;2023-02-28T18:07:38;4.10;50.40
55870;DHT22;41790;50.940;4.560;2023-02-28T18:10:11;4.10;50.20
55870;DHT22;41790;50.940;4.560;2023-02-28T18:12:40;4.20;50.20
55870;DHT22;41790;50.940;4.560;2023-02-28T18:15:06;4.10;50.40
55870;DHT22;41790;50.940;4.560;2023-02-28T18:17:32;4.10;50.70
55870;DHT22;41790;50.940;4.560;2023-02-28T18:19:58;4.10;50.80
55870;DHT22;41790;50.940;4.560;2023-02-28T18:22:24;4.00;51.00
55870;DHT22;41790;50.940;4.560;2023-02-28T18:24:50;4.00;51.60
55870;DHT22;41790;50.940;4.560;2023-02-28T18:27:16;3.90;52.40
55870;DHT22;41790;50.940;4.560;2023-02-28T18:29:42;4.10;52.70
55870;DHT22;41790;50.940;4.560;2023-02-28T18:32:08;4.20;52.40